createdAt,value
2017-07-14T00:00:42.655Z,3.13
2017-07-14T00:03:11.327Z,3.20
2017-07-14T00:05:39.939Z,2.80
2017-07-14T00:08:08.620Z,3.28
2017-07-14T00:10:37.298Z,3.33
2017-07-14T00:13:05.734Z,3.30
2017-07-14T00:15:34.411Z,3.22
2017-07-14T00:18:03.858Z,3.47
2017-07-14T00:20:32.565Z,3.22
2017-07-14T00:23:01.238Z,2.95
2017-07-14T00:25:29.921Z,3.05
2017-07-14T00:27:58.607Z,3.25
2017-07-14T00:30:27.283Z,3.22
2017-07-14T00:32:55.955Z,3.70
2017-07-14T00:35:24.647Z,3.17
2017-07-14T00:37:53.315Z,3.95
2017-07-14T00:40:21.982Z,3.42
2017-07-14T00:42:50.702Z,6.22
2017-07-14T00:45:19.377Z,3.37
2017-07-14T00:47:48.046Z,3.50
2017-07-14T00:50:16.738Z,3.22
2017-07-14T00:52:45.407Z,4.12
2017-07-14T00:55:14.094Z,3.67
2017-07-14T00:57:42.802Z,3.90
2017-07-14T01:00:11.479Z,3.45
2017-07-14T01:02:40.403Z,3.72
2017-07-14T01:05:09.103Z,3.90
2017-07-14T01:07:37.778Z,4.15
2017-07-14T01:10:06.458Z,4.87
2017-07-14T01:12:35.157Z,3.60
2017-07-14T01:15:03.830Z,3.47
2017-07-14T01:17:32.498Z,4.28
2017-07-14T01:20:01.189Z,5.55
2017-07-14T01:22:29.859Z,3.62
2017-07-14T01:24:58.544Z,4.05
2017-07-14T01:27:27.231Z,3.83
2017-07-14T01:29:55.903Z,4.28
2017-07-14T01:32:24.574Z,4.05
2017-07-14T01:34:53.270Z,4.90
2017-07-14T01:37:21.934Z,3.70
2017-07-14T01:39:50.262Z,3.60
2017-07-14T01:42:18.610Z,4.40
2017-07-14T01:44:46.936Z,5.65
2017-07-14T01:47:15.270Z,4.07
2017-07-14T01:49:43.986Z,4.80
2017-07-14T01:52:11.990Z,3.78
2017-07-14T01:54:40.560Z,4.87
2017-07-14T01:57:08.817Z,5.60
2017-07-14T01:59:36.811Z,4.78
2017-07-14T02:02:05.150Z,4.60
2017-07-14T02:04:33.856Z,4.03
2017-07-14T02:07:01.836Z,4.97
2017-07-14T02:09:29.819Z,4.55
2017-07-14T02:11:58.178Z,5.90
2017-07-14T02:14:26.502Z,5.55
2017-07-14T02:16:55.179Z,4.55
2017-07-14T02:19:23.878Z,4.22
2017-07-14T02:21:51.867Z,3.90
2017-07-14T02:24:20.203Z,4.90
2017-07-14T02:26:48.232Z,4.45
2017-07-14T02:29:16.207Z,5.80
2017-07-14T02:31:44.540Z,4.82
2017-07-14T02:34:13.650Z,5.15
2017-07-14T02:36:41.656Z,4.50
2017-07-14T02:39:09.985Z,4.60
2017-07-14T02:41:38.362Z,5.50
2017-07-14T02:44:07.106Z,4.65
2017-07-14T02:46:35.444Z,4.45
2017-07-14T02:49:04.387Z,4.78
2017-07-14T02:51:33.084Z,5.00
2017-07-14T02:54:01.410Z,5.70
2017-07-14T02:56:30.188Z,4.65
2017-07-14T02:58:58.530Z,4.28
2017-07-14T03:01:27.198Z,4.70
2017-07-14T03:03:55.187Z,5.15
2017-07-14T03:06:23.851Z,4.87
2017-07-14T03:08:51.823Z,4.82
2017-07-14T03:11:20.264Z,5.15
2017-07-14T03:13:49.227Z,4.70
2017-07-14T03:16:17.215Z,5.35
2017-07-14T03:18:45.555Z,4.97
2017-07-14T03:21:13.547Z,5.97
2017-07-14T03:23:41.879Z,5.07
2017-07-14T03:26:09.991Z,4.45
2017-07-14T03:28:38.323Z,4.10
2017-07-14T03:31:06.995Z,4.20
2017-07-14T03:33:35.014Z,5.80
2017-07-14T03:36:03.002Z,4.80
2017-07-14T03:38:31.689Z,5.47
2017-07-14T03:41:00.046Z,5.40
2017-07-14T03:43:28.727Z,5.40
2017-07-14T03:45:56.715Z,4.97
2017-07-14T03:48:26.243Z,4.43
2017-07-14T03:50:54.230Z,6.32
2017-07-14T03:53:22.209Z,4.90
2017-07-14T03:55:50.782Z,4.72
2017-07-14T03:58:19.450Z,4.87
2017-07-14T04:00:47.434Z,4.35
2017-07-14T04:03:16.320Z,4.72
2017-07-14T04:05:45.011Z,4.65
2017-07-14T04:08:13.692Z,4.75
2017-07-14T04:10:42.380Z,5.20
2017-07-14T04:13:11.062Z,4.72
2017-07-14T04:15:39.760Z,4.30
2017-07-14T04:18:08.446Z,4.93
2017-07-14T04:20:37.127Z,4.45
2017-07-14T04:23:05.798Z,5.00
2017-07-14T04:25:34.222Z,5.20
2017-07-14T04:28:02.635Z,4.60
2017-07-14T04:30:31.039Z,3.70
2017-07-14T04:32:59.461Z,4.77
2017-07-14T04:35:27.875Z,4.53
2017-07-14T04:37:56.279Z,3.20
2017-07-14T04:40:24.726Z,4.00
2017-07-14T04:42:53.142Z,3.77
2017-07-14T04:45:21.542Z,3.20
2017-07-14T04:47:49.778Z,4.03
2017-07-14T04:50:18.193Z,4.40
2017-07-14T04:52:46.618Z,4.70
2017-07-14T04:55:15.067Z,4.00
2017-07-14T04:57:43.480Z,4.70
2017-07-14T05:00:11.908Z,4.20
2017-07-14T05:02:40.347Z,4.10
2017-07-14T05:05:08.747Z,3.53
2017-07-14T05:07:37.157Z,4.10
2017-07-14T05:10:05.579Z,3.73
2017-07-14T05:12:33.990Z,3.90
2017-07-14T05:15:02.399Z,4.73
2017-07-14T05:17:30.835Z,4.10
2017-07-14T05:19:59.250Z,4.13
2017-07-14T05:22:27.666Z,4.20
2017-07-14T05:24:56.100Z,3.60
2017-07-14T05:27:24.510Z,4.73
2017-07-14T05:29:52.918Z,3.80
2017-07-14T05:32:21.336Z,4.27
2017-07-14T05:34:49.743Z,3.80
2017-07-14T05:37:17.816Z,5.03
2017-07-14T05:39:46.260Z,3.73
2017-07-14T05:42:14.699Z,4.03
2017-07-14T05:44:43.345Z,4.90
2017-07-14T05:47:11.775Z,4.77
2017-07-14T05:49:40.938Z,4.20
2017-07-14T05:52:09.352Z,3.80
2017-07-14T05:54:37.815Z,4.60
2017-07-14T05:57:06.219Z,5.00
2017-07-14T05:59:34.649Z,5.00
2017-07-14T06:02:03.090Z,4.53
2017-07-14T06:04:31.310Z,5.17
2017-07-14T06:06:59.729Z,4.53
2017-07-14T06:09:28.343Z,4.60
2017-07-14T06:11:56.750Z,4.57
2017-07-14T06:14:25.159Z,3.93
2017-07-14T06:16:53.599Z,3.57
2017-07-14T06:19:22.003Z,4.87
2017-07-14T06:21:50.411Z,3.60
2017-07-14T06:24:18.845Z,4.83
2017-07-14T06:26:47.259Z,4.00
2017-07-14T06:29:15.676Z,4.37
2017-07-14T06:31:44.109Z,4.53
2017-07-14T06:34:12.515Z,4.40
2017-07-14T06:36:40.931Z,4.17
2017-07-14T06:39:09.480Z,4.57
2017-07-14T06:41:37.889Z,4.90
2017-07-14T06:44:06.297Z,4.07
2017-07-14T06:46:34.746Z,5.20
2017-07-14T06:49:03.918Z,4.57
2017-07-14T06:51:32.334Z,4.97
2017-07-14T06:54:00.751Z,4.30
2017-07-14T06:56:29.168Z,4.67
2017-07-14T06:58:57.588Z,4.57
2017-07-14T07:01:26.066Z,4.27
2017-07-14T07:03:54.694Z,3.40
2017-07-14T07:06:23.117Z,3.90
2017-07-14T07:08:51.830Z,4.50
2017-07-14T07:11:20.236Z,4.83
2017-07-14T07:13:48.644Z,4.70
2017-07-14T07:16:17.082Z,4.70
2017-07-14T07:18:45.491Z,5.60
2017-07-14T07:21:13.911Z,5.77
2017-07-14T07:23:42.355Z,5.40
2017-07-14T07:26:10.771Z,5.10
2017-07-14T07:28:39.180Z,4.70
2017-07-14T07:31:07.615Z,5.00
2017-07-14T07:33:36.036Z,5.20
2017-07-14T07:36:04.454Z,4.70
2017-07-14T07:38:32.886Z,4.30
2017-07-14T07:41:01.300Z,4.77
2017-07-14T07:43:29.716Z,5.00
2017-07-14T07:45:57.976Z,4.40
2017-07-14T07:48:31.767Z,5.10
2017-07-14T07:51:00.211Z,5.40
2017-07-14T07:53:29.408Z,3.57
2017-07-14T07:55:57.816Z,4.93
2017-07-14T07:58:26.275Z,4.60
2017-07-14T08:00:54.687Z,3.97
2017-07-14T08:03:23.090Z,3.90
2017-07-14T08:05:51.625Z,4.40
2017-07-14T08:08:20.038Z,4.83
2017-07-14T08:10:48.459Z,3.60
2017-07-14T08:13:16.900Z,3.87
2017-07-14T08:15:45.322Z,3.77
2017-07-14T08:18:13.730Z,3.27
2017-07-14T08:20:42.187Z,3.30
2017-07-14T08:23:10.600Z,2.80
2017-07-14T08:25:39.006Z,3.43
2017-07-14T08:28:07.434Z,3.63
2017-07-14T08:30:35.848Z,4.00
2017-07-14T08:33:04.249Z,3.40
2017-07-14T08:35:32.675Z,3.53
2017-07-14T08:38:01.115Z,3.40
2017-07-14T08:40:29.543Z,3.83
2017-07-14T08:42:57.980Z,2.80
2017-07-14T08:45:26.401Z,4.00
2017-07-14T08:47:54.811Z,3.93
2017-07-14T08:50:23.258Z,3.90
2017-07-14T08:52:51.666Z,3.20
2017-07-14T08:55:20.078Z,4.33
2017-07-14T08:57:48.515Z,2.80
2017-07-14T09:00:16.927Z,3.80
2017-07-14T09:02:45.335Z,3.23
2017-07-14T09:05:13.756Z,3.80
2017-07-14T09:07:42.943Z,3.50
2017-07-14T09:10:11.357Z,3.40
2017-07-14T09:12:39.783Z,3.07
2017-07-14T09:15:08.204Z,3.80
2017-07-14T09:17:37.397Z,2.70
2017-07-14T09:20:05.819Z,3.60
2017-07-14T09:22:34.230Z,3.40
2017-07-14T09:25:02.638Z,3.60
2017-07-14T09:27:31.063Z,3.20
2017-07-14T09:29:59.479Z,2.87
2017-07-14T09:32:27.887Z,4.20
2017-07-14T09:34:56.330Z,2.73
2017-07-14T09:37:24.740Z,3.90
2017-07-14T09:39:53.161Z,3.23
2017-07-14T09:42:21.587Z,3.83
2017-07-14T09:44:50.015Z,2.90
2017-07-14T09:47:18.235Z,2.87
2017-07-14T09:49:46.779Z,3.07
2017-07-14T09:52:15.188Z,3.40
2017-07-14T09:54:43.617Z,3.10
2017-07-14T09:57:12.291Z,3.33
2017-07-14T09:59:40.707Z,3.47
2017-07-14T10:02:09.121Z,3.13
2017-07-14T10:04:37.650Z,2.90
2017-07-14T10:07:06.062Z,3.20
2017-07-14T10:09:34.471Z,2.60
2017-07-14T10:12:02.904Z,3.20
2017-07-14T10:14:32.083Z,2.60
2017-07-14T10:17:00.487Z,3.07
2017-07-14T10:19:28.923Z,3.17
2017-07-14T10:21:57.328Z,2.83
2017-07-14T10:24:25.735Z,3.20
2017-07-14T10:26:54.951Z,3.07
2017-07-14T10:29:23.364Z,2.33
2017-07-14T10:31:51.770Z,2.37
2017-07-14T10:34:20.388Z,2.80
2017-07-14T10:36:48.797Z,2.97
2017-07-14T10:39:17.212Z,2.97
2017-07-14T10:41:45.634Z,3.17
2017-07-14T10:44:14.044Z,2.90
2017-07-14T10:46:42.464Z,2.70
2017-07-14T10:49:10.891Z,2.73
2017-07-14T10:51:39.296Z,2.77
2017-07-14T10:54:07.710Z,2.90
2017-07-14T10:56:36.150Z,2.40
2017-07-14T10:59:04.564Z,2.40
2017-07-14T11:01:32.977Z,2.20
2017-07-14T11:04:01.402Z,3.03
2017-07-14T11:06:29.807Z,2.40
2017-07-14T11:08:58.215Z,2.50
2017-07-14T11:11:26.635Z,2.77
2017-07-14T11:13:55.045Z,2.70
2017-07-14T11:16:23.443Z,2.13
2017-07-14T11:18:51.919Z,2.90
2017-07-14T11:21:20.328Z,1.90
2017-07-14T11:23:49.503Z,3.33
2017-07-14T11:26:17.927Z,2.87
2017-07-14T11:28:46.331Z,2.90
2017-07-14T11:31:14.752Z,2.70
2017-07-14T11:33:43.179Z,2.80
2017-07-14T11:36:11.584Z,2.23
2017-07-14T11:38:39.999Z,2.60
2017-07-14T11:41:08.438Z,3.10
2017-07-14T11:43:36.847Z,3.13
2017-07-14T11:46:05.251Z,2.47
2017-07-14T11:48:33.721Z,3.03
2017-07-14T11:51:02.121Z,2.40
2017-07-14T11:53:31.301Z,2.07
2017-07-14T11:55:59.732Z,2.40
2017-07-14T11:58:28.130Z,2.20
2017-07-14T12:00:56.536Z,3.27
2017-07-14T12:03:25.150Z,2.53
2017-07-14T12:05:53.558Z,2.20
2017-07-14T12:08:21.968Z,3.10
2017-07-14T12:10:50.399Z,3.80
2017-07-14T12:13:18.808Z,2.90
2017-07-14T12:15:47.228Z,2.70
2017-07-14T12:18:15.758Z,2.87
2017-07-14T12:20:44.158Z,2.90
2017-07-14T12:23:12.573Z,3.00
2017-07-14T12:25:41.016Z,2.70
2017-07-14T12:28:09.429Z,2.80
2017-07-14T12:30:37.844Z,3.30
2017-07-14T12:33:06.299Z,3.33
2017-07-14T12:35:34.702Z,3.40
2017-07-14T12:38:03.118Z,3.20
2017-07-14T12:40:31.563Z,3.73
2017-07-14T12:43:00.743Z,3.07
2017-07-14T12:45:29.145Z,3.30
2017-07-14T12:47:57.843Z,3.97
2017-07-14T12:50:26.246Z,3.87
2017-07-14T12:52:54.662Z,3.13
2017-07-14T12:55:23.183Z,3.83
2017-07-14T12:57:51.596Z,4.50
2017-07-14T13:00:20.022Z,4.53
2017-07-14T13:02:48.453Z,4.13
2017-07-14T13:05:16.858Z,4.70
2017-07-14T13:07:45.262Z,4.77
2017-07-14T13:10:13.685Z,4.60
2017-07-14T13:12:42.097Z,4.60
2017-07-14T13:15:10.505Z,4.90
2017-07-14T13:17:38.934Z,4.90
2017-07-14T13:20:07.343Z,4.67
2017-07-14T13:22:35.754Z,4.50
2017-07-14T13:25:04.174Z,5.30
2017-07-14T13:27:32.583Z,4.67
2017-07-14T13:30:00.995Z,5.17
2017-07-14T13:32:29.439Z,5.00
2017-07-14T13:34:57.860Z,4.10
2017-07-14T13:37:26.272Z,5.33
2017-07-14T13:39:54.699Z,5.37
2017-07-14T13:42:23.107Z,5.77
2017-07-14T13:44:51.506Z,4.97
2017-07-14T13:47:19.963Z,6.00
2017-07-14T13:49:48.372Z,5.30
2017-07-14T13:52:16.787Z,4.10
2017-07-14T13:54:45.399Z,5.80
2017-07-14T13:57:13.814Z,5.33
2017-07-14T13:59:42.236Z,4.70
2017-07-14T14:02:10.666Z,5.03
2017-07-14T14:04:39.070Z,5.13
2017-07-14T14:07:07.492Z,6.80
2017-07-14T14:09:35.922Z,5.57
2017-07-14T14:12:04.333Z,5.07
2017-07-14T14:14:32.740Z,5.57
2017-07-14T14:17:01.178Z,4.87
2017-07-14T14:19:29.581Z,6.47
2017-07-14T14:21:58.013Z,5.37
2017-07-14T14:24:26.455Z,5.43
2017-07-14T14:26:54.872Z,5.30
2017-07-14T14:29:23.292Z,5.27
2017-07-14T14:31:51.869Z,4.97
2017-07-14T14:34:20.288Z,5.00
2017-07-14T14:36:48.694Z,5.33
2017-07-14T14:39:17.147Z,4.70
2017-07-14T14:41:45.558Z,4.10
2017-07-14T14:44:14.760Z,5.00
2017-07-14T14:46:43.186Z,4.23
2017-07-14T14:49:11.596Z,4.53
2017-07-14T14:51:40.002Z,5.43
2017-07-14T14:54:08.439Z,4.70
2017-07-14T14:56:36.839Z,4.10
2017-07-14T14:59:05.251Z,5.03
2017-07-14T15:01:33.672Z,4.33
2017-07-14T15:04:02.078Z,4.23
2017-07-14T15:06:30.492Z,4.37
2017-07-14T15:08:58.915Z,5.90
2017-07-14T15:11:27.323Z,4.73
2017-07-14T15:13:55.731Z,4.90
2017-07-14T15:16:24.179Z,4.73
2017-07-14T15:18:52.594Z,5.20
2017-07-14T15:21:21.010Z,4.37
2017-07-14T15:23:49.434Z,4.97
2017-07-14T15:26:17.838Z,4.03
2017-07-14T15:28:46.243Z,5.43
2017-07-14T15:31:14.674Z,3.67
2017-07-14T15:33:43.087Z,5.80
2017-07-14T15:36:11.482Z,6.17
2017-07-14T15:38:40.730Z,5.70
2017-07-14T15:41:09.136Z,5.97
2017-07-14T15:43:37.535Z,6.27
2017-07-14T15:46:05.946Z,5.90
2017-07-14T15:48:34.363Z,6.00
2017-07-14T15:51:02.770Z,6.40
2017-07-14T15:53:31.205Z,6.03
2017-07-14T15:55:59.616Z,5.70
2017-07-14T15:58:28.024Z,6.17
2017-07-14T16:00:56.548Z,6.23
2017-07-14T16:03:24.963Z,5.43
2017-07-14T16:05:53.367Z,6.60
2017-07-14T16:08:21.906Z,5.03
2017-07-14T16:10:50.311Z,6.80
2017-07-14T16:13:18.726Z,5.97
2017-07-14T16:15:47.160Z,6.10
2017-07-14T16:18:15.568Z,5.80
2017-07-14T16:20:43.978Z,6.20
2017-07-14T16:23:12.414Z,7.33
2017-07-14T16:25:40.819Z,6.17
2017-07-14T16:28:09.228Z,6.50
2017-07-14T16:30:37.675Z,6.50
2017-07-14T16:33:06.086Z,6.67
2017-07-14T16:35:34.495Z,5.83
2017-07-14T16:38:02.934Z,6.37
2017-07-14T16:40:31.352Z,6.30
2017-07-14T16:42:59.764Z,6.00
2017-07-14T16:45:28.232Z,6.30
2017-07-14T16:47:56.720Z,6.40
2017-07-14T16:50:25.130Z,7.37
2017-07-14T16:52:53.561Z,7.97
2017-07-14T16:55:21.966Z,7.80
2017-07-14T16:57:50.371Z,8.30
2017-07-14T17:00:18.823Z,6.50
2017-07-14T17:02:47.241Z,6.97
2017-07-14T17:05:16.431Z,8.67
2017-07-14T17:07:44.853Z,8.03
2017-07-14T17:10:13.267Z,8.83
2017-07-14T17:12:41.680Z,8.77
2017-07-14T17:15:10.120Z,8.27
2017-07-14T17:17:38.527Z,7.70
2017-07-14T17:20:06.940Z,8.03
2017-07-14T17:22:35.373Z,8.83
2017-07-14T17:25:03.799Z,8.53
2017-07-14T17:27:32.214Z,9.40
2017-07-14T17:30:00.690Z,10.07
2017-07-14T17:32:29.100Z,10.97
2017-07-14T17:34:57.521Z,12.40
2017-07-14T17:37:26.014Z,10.33
2017-07-14T17:39:54.430Z,10.40
2017-07-14T17:42:22.854Z,12.17
2017-07-14T17:44:51.295Z,10.27
2017-07-14T17:47:19.714Z,12.20
2017-07-14T17:49:48.127Z,8.90
2017-07-14T17:52:16.558Z,10.93
2017-07-14T17:54:44.981Z,10.77
2017-07-14T17:57:13.392Z,10.50
2017-07-14T17:59:42.076Z,10.57
2017-07-14T18:02:10.493Z,11.00
2017-07-14T18:04:38.910Z,8.80
2017-07-14T18:07:07.344Z,7.77
2017-07-14T18:09:35.754Z,8.07
2017-07-14T18:12:04.162Z,7.80
2017-07-14T18:14:32.586Z,7.00
2017-07-14T18:17:00.996Z,5.60
2017-07-14T18:19:29.399Z,5.10
2017-07-14T18:21:57.864Z,3.90
2017-07-14T18:24:26.275Z,5.00
2017-07-14T18:26:54.694Z,4.07
2017-07-14T18:29:23.142Z,4.27
2017-07-14T18:31:51.555Z,4.43
2017-07-14T18:34:19.966Z,3.37
2017-07-14T18:36:48.406Z,3.87
2017-07-14T18:39:16.825Z,3.40
2017-07-14T18:41:45.234Z,3.10
2017-07-14T18:44:13.678Z,3.20
2017-07-14T18:46:42.083Z,2.90
2017-07-14T18:49:10.500Z,2.73
2017-07-14T18:51:38.927Z,1.87
2017-07-14T18:54:07.334Z,2.13
2017-07-14T18:56:35.739Z,2.13
2017-07-14T18:59:04.220Z,2.50
2017-07-14T19:01:32.628Z,2.60
2017-07-14T19:04:01.036Z,2.70
2017-07-14T19:06:29.464Z,2.63
2017-07-14T19:08:57.872Z,2.53
2017-07-14T19:11:26.279Z,2.33
2017-07-14T19:13:54.727Z,3.57
2017-07-14T19:16:23.147Z,2.97
2017-07-14T19:18:51.556Z,2.87
2017-07-14T19:21:20.783Z,2.80
2017-07-14T19:23:49.214Z,3.00
2017-07-14T19:26:17.671Z,2.93
2017-07-14T19:28:46.094Z,2.50
2017-07-14T19:31:14.514Z,2.30
2017-07-14T19:33:42.936Z,2.40
2017-07-14T19:36:11.361Z,3.20
2017-07-14T19:38:39.767Z,3.07
2017-07-14T19:41:08.528Z,2.60
2017-07-14T19:43:36.966Z,2.80
2017-07-14T19:46:05.634Z,2.33
2017-07-14T19:48:34.051Z,2.90
2017-07-14T19:51:02.491Z,2.57
2017-07-14T19:53:30.908Z,2.23
2017-07-14T19:55:59.319Z,2.30
2017-07-14T19:58:27.767Z,2.30
2017-07-14T20:00:57.650Z,2.17
2017-07-14T20:03:26.066Z,1.97
2017-07-14T20:05:54.513Z,2.20
2017-07-14T20:08:22.930Z,2.03
2017-07-14T20:10:51.347Z,2.03
2017-07-14T20:13:19.786Z,2.00
2017-07-14T20:15:48.195Z,1.87
2017-07-14T20:18:16.603Z,1.87
2017-07-14T20:20:45.026Z,1.40
2017-07-14T20:23:13.435Z,1.80
2017-07-14T20:25:42.611Z,1.90
2017-07-14T20:28:11.035Z,2.23
2017-07-14T20:30:39.443Z,2.00
2017-07-14T20:33:07.859Z,2.07
2017-07-14T20:35:36.290Z,2.30
2017-07-14T20:38:04.695Z,1.63
2017-07-14T20:40:32.924Z,2.13
2017-07-14T20:43:01.353Z,2.13
2017-07-14T20:45:29.767Z,1.70
2017-07-14T20:47:58.192Z,1.67
2017-07-14T20:50:26.639Z,2.00
2017-07-14T20:52:55.059Z,2.30
2017-07-14T20:55:23.742Z,2.35
2017-07-14T20:57:52.187Z,2.00
2017-07-14T21:00:20.605Z,2.40
2017-07-14T21:02:49.283Z,3.50
2017-07-14T21:05:17.723Z,3.43
2017-07-14T21:07:46.406Z,2.97
2017-07-14T21:10:15.075Z,3.40
2017-07-14T21:12:43.802Z,2.70
2017-07-14T21:15:12.220Z,3.07
2017-07-14T21:17:41.673Z,3.90
2017-07-14T21:20:10.362Z,3.63
2017-07-14T21:22:39.038Z,2.58
2017-07-14T21:25:07.703Z,3.37
2017-07-14T21:27:36.446Z,2.95
2017-07-14T21:30:05.130Z,3.20
2017-07-14T21:32:33.548Z,3.90
2017-07-14T21:35:02.354Z,3.40
2017-07-14T21:37:31.034Z,4.07
2017-07-14T21:39:59.455Z,4.27
2017-07-14T21:42:28.203Z,3.45
2017-07-14T21:44:56.884Z,3.17
2017-07-14T21:47:25.560Z,4.10
2017-07-14T21:49:54.254Z,3.55
2017-07-14T21:52:22.931Z,4.37
2017-07-14T21:54:51.602Z,3.30
2017-07-14T21:57:20.296Z,4.20
2017-07-14T21:59:49.256Z,3.05
2017-07-14T22:02:17.934Z,3.30
2017-07-14T22:04:46.643Z,2.70
2017-07-14T22:07:15.324Z,3.10
2017-07-14T22:09:44.006Z,2.97
2017-07-14T22:12:12.714Z,2.50
2017-07-14T22:14:41.129Z,1.90
2017-07-14T22:17:09.808Z,2.30
2017-07-14T22:19:38.244Z,2.30
2017-07-14T22:22:06.929Z,2.60
2017-07-14T22:24:35.618Z,3.10
2017-07-14T22:27:04.319Z,3.05
2017-07-14T22:29:33.001Z,2.45
2017-07-14T22:32:01.679Z,3.12
2017-07-14T22:34:30.116Z,2.60
2017-07-14T22:36:58.527Z,2.60
2017-07-14T22:39:26.952Z,3.10
2017-07-14T22:41:55.648Z,2.58
2017-07-14T22:44:24.068Z,3.57
2017-07-14T22:46:52.487Z,3.37
2017-07-14T22:49:20.922Z,3.27
2017-07-14T22:51:49.603Z,3.42
2017-07-14T22:54:18.277Z,3.55
2017-07-14T22:56:46.974Z,3.67
2017-07-14T22:59:15.643Z,5.05
2017-07-14T23:01:44.061Z,3.40
2017-07-14T23:04:12.773Z,3.50
2017-07-14T23:06:41.467Z,2.90
2017-07-14T23:09:10.146Z,3.37
2017-07-14T23:11:38.575Z,4.13
2017-07-14T23:14:06.986Z,3.07
2017-07-14T23:16:35.667Z,3.50
2017-07-14T23:19:04.107Z,2.83
2017-07-14T23:21:32.530Z,2.80
2017-07-14T23:24:00.942Z,3.03
2017-07-14T23:26:29.366Z,2.50
2017-07-14T23:28:57.775Z,3.00
2017-07-14T23:31:26.187Z,2.10
2017-07-14T23:33:54.898Z,2.40
2017-07-14T23:36:23.315Z,1.70
2017-07-14T23:38:51.730Z,2.10
2017-07-14T23:41:20.177Z,1.60
2017-07-14T23:43:48.603Z,1.57
2017-07-14T23:46:17.007Z,1.90
2017-07-14T23:48:45.432Z,2.20
2017-07-14T23:51:13.843Z,1.70
2017-07-14T23:53:42.248Z,2.17
2017-07-14T23:56:10.871Z,1.97
2017-07-14T23:58:39.290Z,1.70
